Mobile Regional Airport
KMOB : rendu visible

Aérodrome :











RETROUVEZ-NOUS SUR...

 
LOGIN :

S'inscrire | Disclaimer

   EN    FR    IT 

 









Légende :    VFR   VFR Marginal   IFR   IFR Intensif   IFR Très Intensif
Visi : 
Plafond : 
>= 8 km
>= 3000ft
5 à 8 km
1000 à 3000 ft
1500m à 5 km
500 à 1000 ft
800 à 1500m
200 à 500 ft
< 800m
< 200 ft
Symboles :   Orages  Brouillard  Fortes neiges  Fortes précipitations  Vent > 20 kt






- Altitude de l'aérodrome : 219 ft
- Code IATA : MOB


KMOB - Mobile Regional

DERNIER METAR :
  • 100656Z AUTO 20009KT 6SM BR OVC004 21/19 A3000 RMK AO2 SLP157 T02110194

METARs EXPIRÉS :
  • 100556Z AUTO 20007KT 6SM BR OVC004 21/19 A3000 RMK AO2 SLP158 T02060194 10211 20206 402330139 50000
  • 100529Z AUTO 21007KT 6SM BR OVC004 21/19 A3000 RMK AO2 T02060194
  • 100456Z 20009KT 7SM OVC005 21/19 A3000 RMK AO2 SLP157 T02060194

TAF KMOB
Valide du 10 à 06h jusqu'au 11 à 06h UTC


100520Z 1006/1106 20009KT P6SM OVC005
FM100800 19005KT 1/4SM FG VCSH VV004
FM101400 18006KT 3SM -SHRA BR OVC010
FM101800 19007KT P6SM -SHRA OVC015
FM102100 36015KT 4SM -RA BR OVC007



MET'MAP, la Météo Aéronautique d'un coup d'oeil ! - Copyright ORBIFLY Décembre 2007 - Disclaimer

ORBIFLY MET'MAP TEAM :

Programmation & Développement : Alexandra Zaïnal
Sur une idée originale de : Baudouin d'Aumeries
Assistance à la programmation : Marc-Olivier Méhu
Soutien technique & logistique : Manuel Goepfert

Contact : metmap@orbifly.com




SOURCES & CREDITS :

   NOAA       Earth
Advisory